Time;durP1;ratioP1;P1;durP2;ratioP2;P2;SDS_P1;SDS_P2;PMS_P1;PMS_P2;Temp;Humidity;BMP_temperature;BMP_pressure;BME280_temperature;BME280_humidity;BME280_pressure;Samples;Min_cycle;Max_cycle;Signal;HPM_P1;HPM_P2
2023/06/26 00:01:32;;;;;;;5.97;4.95;;;22.40;99.90;;;;;;4994289;28;20202;-85
2023/06/26 00:04:00;;;;;;;10.10;5.57;;;22.20;99.90;;;;;;4988503;28;20666;-85
2023/06/26 00:06:28;;;;;;;8.02;5.18;;;22.20;99.90;;;;;;4995246;28;20218;-85
2023/06/26 00:08:56;;;;;;;8.02;5.53;;;22.20;99.90;;;;;;4988588;28;20237;-82
2023/06/26 00:11:23;;;;;;;7.20;5.68;;;22.10;99.90;;;;;;4994197;28;20204;-86
2023/06/26 00:13:50;;;;;;;8.85;5.80;;;22.10;99.90;;;;;;4991244;28;20206;-84
2023/06/26 00:16:18;;;;;;;6.05;5.30;;;22.10;99.90;;;;;;4993820;28;20202;-83
2023/06/26 00:18:44;;;;;;;6.80;5.28;;;22.10;99.90;;;;;;4990377;28;21013;-83
2023/06/26 00:21:11;;;;;;;8.23;5.97;;;22.10;99.90;;;;;;5005684;28;20212;-85
2023/06/26 00:23:38;;;;;;;6.25;5.18;;;22.10;99.90;;;;;;4993732;28;20214;-85
2023/06/26 00:26:06;;;;;;;9.50;5.85;;;22.10;99.90;;;;;;4991451;28;20213;-83
2023/06/26 00:28:33;;;;;;;7.63;5.38;;;22.00;99.90;;;;;;4977903;28;20210;-84
2023/06/26 00:31:00;;;;;;;8.75;5.10;;;21.90;99.90;;;;;;4987689;28;20664;-81
2023/06/26 00:33:28;;;;;;;8.70;5.38;;;21.90;99.90;;;;;;4990525;28;20204;-85
2023/06/26 00:36:00;;;;;;;7.28;5.50;;;21.80;99.90;;;;;;4994148;28;20665;-85
2023/06/26 00:38:27;;;;;;;8.00;5.38;;;21.80;99.90;;;;;;4982560;28;20220;-82
2023/06/26 00:40:54;;;;;;;6.50;5.22;;;21.70;99.90;;;;;;4995951;28;20194;-84
2023/06/26 00:43:22;;;;;;;6.30;5.07;;;21.60;99.90;;;;;;4998133;28;20555;-83
2023/06/26 00:45:49;;;;;;;7.30;5.60;;;21.60;99.90;;;;;;4994182;28;20225;-84
2023/06/26 00:48:17;;;;;;;7.72;5.60;;;21.60;99.90;;;;;;4974381;28;20685;-83
2023/06/26 00:50:44;;;;;;;8.32;5.80;;;21.50;99.90;;;;;;4994627;28;20197;-82
2023/06/26 00:53:12;;;;;;;12.60;5.20;;;21.40;99.90;;;;;;5010004;28;20208;-81
2023/06/26 00:55:39;;;;;;;9.27;5.13;;;21.30;99.90;;;;;;5004371;28;20205;-81
2023/06/26 00:58:06;;;;;;;7.03;5.45;;;21.20;99.90;;;;;;5012121;28;20236;-82
2023/06/26 01:00:33;;;;;;;7.82;5.57;;;21.20;99.90;;;;;;5010635;28;20252;-80
2023/06/26 01:03:00;;;;;;;6.55;5.30;;;21.30;99.90;;;;;;5032986;23;20309;-63
2023/06/26 01:05:29;;;;;;;7.88;5.15;;;21.20;99.90;;;;;;5030242;28;20213;-68
2023/06/26 01:07:58;;;;;;;9.52;5.53;;;21.10;99.90;;;;;;5020604;28;20189;-68
2023/06/26 01:10:27;;;;;;;8.85;5.63;;;21.30;99.90;;;;;;5030564;28;20194;-68
2023/06/26 01:12:55;;;;;;;8.02;5.25;;;21.30;99.90;;;;;;5027117;28;20208;-69
2023/06/26 01:15:22;;;;;;;6.88;5.15;;;21.30;99.90;;;;;;5042967;28;20234;-68
2023/06/26 01:17:52;;;;;;;6.18;4.75;;;21.20;99.90;;;;;;5018775;28;20228;-66
2023/06/26 01:20:20;;;;;;;6.13;5.28;;;21.10;99.90;;;;;;5039269;28;20192;-61
2023/06/26 01:23:17;;;;;;;10.50;5.05;;;21.10;99.90;;;;;;5029096;28;20188;-64
2023/06/26 01:26:00;;;;;;;9.73;5.60;;;21.00;99.90;;;;;;5024117;28;20231;-64
2023/06/26 01:28:28;;;;;;;7.45;5.32;;;21.00;99.90;;;;;;5030408;28;20192;-64
2023/06/26 01:30:57;;;;;;;8.18;5.78;;;21.00;99.90;;;;;;5033921;28;20716;-66
2023/06/26 01:33:24;;;;;;;9.48;5.07;;;20.90;99.90;;;;;;5027665;28;20204;-68
2023/06/26 01:35:51;;;;;;;8.43;5.32;;;21.00;99.90;;;;;;5023279;28;20338;-68
2023/06/26 01:38:20;;;;;;;9.15;5.70;;;20.90;99.90;;;;;;5030303;28;20266;-69
2023/06/26 01:40:47;;;;;;;12.45;5.57;;;20.90;99.90;;;;;;5026665;28;20657;-69
2023/06/26 01:43:44;;;;;;;11.07;5.63;;;20.90;99.90;;;;;;5031713;28;20675;-68
2023/06/26 01:46:18;;;;;;;8.73;5.53;;;20.90;99.90;;;;;;5030019;28;20203;-69
2023/06/26 01:49:25;;;;;;;8.63;4.78;;;20.80;99.90;;;;;;5026179;28;20207;-69
2023/06/26 01:52:02;;;;;;;6.72;4.95;;;20.70;99.90;;;;;;5016337;28;20209;-68
2023/06/26 01:54:34;;;;;;;7.60;4.82;;;20.70;99.90;;;;;;5047339;28;20200;-67
2023/06/26 01:57:01;;;;;;;12.60;5.57;;;20.70;99.90;;;;;;5023953;28;20200;-70
2023/06/26 01:59:32;;;;;;;8.30;5.93;;;20.80;99.90;;;;;;5006657;28;20577;-71
2023/06/26 02:02:01;;;;;;;7.82;5.22;;;20.80;99.90;;;;;;5035184;28;20189;-68
2023/06/26 02:04:28;;;;;;;6.55;4.75;;;20.80;99.90;;;;;;5013572;28;20225;-69
2023/06/26 02:06:56;;;;;;;8.65;4.88;;;20.80;99.90;;;;;;4999420;28;20250;-69
2023/06/26 02:09:22;;;;;;;6.57;5.22;;;20.70;99.90;;;;;;5003497;28;20209;-69
2023/06/26 02:11:49;;;;;;;8.80;5.40;;;20.70;99.90;;;;;;4990972;28;20227;-69
2023/06/26 02:14:16;;;;;;;12.23;5.57;;;20.70;99.90;;;;;;5007838;28;20220;-70
2023/06/26 02:16:43;;;;;;;7.40;5.60;;;20.70;99.90;;;;;;5002446;28;20201;-68
2023/06/26 02:19:10;;;;;;;7.07;4.63;;;20.60;99.90;;;;;;5014949;28;20311;-68
2023/06/26 02:21:38;;;;;;;6.00;5.40;;;20.60;99.90;;;;;;5018264;28;20188;-68
2023/06/26 02:24:05;;;;;;;8.68;5.10;;;20.60;99.90;;;;;;5001905;28;20189;-67
2023/06/26 02:26:32;;;;;;;9.25;5.03;;;20.60;99.90;;;;;;5007692;28;20685;-68
2023/06/26 02:28:59;;;;;;;8.68;4.85;;;20.60;99.90;;;;;;5016052;28;20211;-70
2023/06/26 02:31:26;;;;;;;8.75;5.22;;;20.60;99.90;;;;;;5014969;28;20195;-69
2023/06/26 02:33:55;;;;;;;9.50;4.80;;;20.60;99.90;;;;;;5009743;28;20197;-69
2023/06/26 02:36:22;;;;;;;9.63;5.28;;;20.60;99.90;;;;;;5015000;28;20603;-65
2023/06/26 02:38:48;;;;;;;5.55;4.50;;;20.60;99.90;;;;;;5010547;28;20270;-66
2023/06/26 02:41:15;;;;;;;6.85;4.97;;;20.60;99.90;;;;;;5013915;28;20780;-66
2023/06/26 02:43:42;;;;;;;8.32;4.47;;;20.60;99.90;;;;;;4999893;28;20282;-66
2023/06/26 02:46:09;;;;;;;6.78;4.78;;;20.60;99.90;;;;;;5019022;28;20390;-66
2023/06/26 02:48:36;;;;;;;6.00;4.43;;;20.60;99.90;;;;;;5009479;28;20208;-67
2023/06/26 02:51:03;;;;;;;6.95;4.72;;;20.70;99.90;;;;;;5008326;28;20595;-66
2023/06/26 02:53:31;;;;;;;4.63;4.22;;;20.70;99.90;;;;;;5018495;28;20209;-70
2023/06/26 02:55:58;;;;;;;9.65;4.68;;;20.70;99.90;;;;;;5010371;28;20201;-71
2023/06/26 02:58:25;;;;;;;6.95;4.50;;;20.70;99.90;;;;;;5012639;28;20213;-71
2023/06/26 03:00:53;;;;;;;7.53;4.82;;;20.70;99.90;;;;;;5012734;28;20189;-66
2023/06/26 03:03:20;;;;;;;5.35;4.78;;;20.70;99.90;;;;;;5020164;28;20399;-65
2023/06/26 03:05:47;;;;;;;6.40;5.28;;;20.70;99.90;;;;;;5013589;28;20268;-72
2023/06/26 03:08:14;;;;;;;11.75;4.97;;;20.80;99.90;;;;;;5017084;28;20188;-71
2023/06/26 03:10:41;;;;;;;9.82;5.55;;;20.80;99.90;;;;;;5008616;28;20632;-71
2023/06/26 03:13:09;;;;;;;9.35;4.57;;;20.80;99.90;;;;;;5014115;28;20204;-71
2023/06/26 03:15:37;;;;;;;8.00;5.60;;;20.80;99.90;;;;;;4990066;28;20236;-70
2023/06/26 03:18:05;;;;;;;9.02;5.05;;;20.80;99.90;;;;;;5013979;28;20561;-70
2023/06/26 03:20:32;;;;;;;14.20;8.70;;;20.80;99.90;;;;;;4991513;28;20604;-70
2023/06/26 03:22:59;;;;;;;24.10;15.27;;;20.90;99.90;;;;;;4995850;28;20221;-72
2023/06/26 03:25:26;;;;;;;7.75;5.22;;;21.00;99.90;;;;;;5025206;28;20582;-70
2023/06/26 03:28:13;;;;;;;18.98;11.60;;;21.00;99.90;;;;;;5015919;28;20201;-71
2023/06/26 03:30:40;;;;;;;21.17;12.18;;;20.90;99.90;;;;;;5013735;28;20204;-68
2023/06/26 03:33:07;;;;;;;12.25;8.00;;;20.90;99.90;;;;;;5004231;28;20286;-71
2023/06/26 03:35:34;;;;;;;13.88;10.13;;;21.00;99.90;;;;;;5010573;28;20687;-68
2023/06/26 03:38:01;;;;;;;15.75;10.57;;;21.10;99.90;;;;;;4995419;28;20200;-71
2023/06/26 03:40:28;;;;;;;13.70;8.95;;;21.20;99.90;;;;;;5013644;28;20204;-70
2023/06/26 03:42:55;;;;;;;8.32;6.43;;;21.30;99.90;;;;;;5011101;28;20188;-72
2023/06/26 03:45:23;;;;;;;11.10;5.55;;;21.40;99.90;;;;;;5015985;28;20284;-71
2023/06/26 03:47:50;;;;;;;11.18;7.03;;;21.40;99.90;;;;;;5015837;28;20199;-70
2023/06/26 03:50:17;;;;;;;15.35;10.30;;;21.50;99.90;;;;;;5006785;28;20259;-70
2023/06/26 03:52:45;;;;;;;21.95;12.88;;;21.50;99.90;;;;;;5016504;28;20197;-71
2023/06/26 03:55:13;;;;;;;12.80;8.60;;;21.80;99.90;;;;;;5002902;28;20223;-68
2023/06/26 03:57:39;;;;;;;11.80;8.85;;;22.20;99.90;;;;;;5001763;28;20716;-68
2023/06/26 04:00:11;;;;;;;7.75;6.07;;;22.70;99.90;;;;;;4994909;28;20385;-66
2023/06/26 04:02:40;;;;;;;8.57;4.95;;;22.90;99.90;;;;;;5012384;28;20723;-68
2023/06/26 04:05:08;;;;;;;11.63;5.38;;;23.20;99.90;;;;;;5014207;28;20225;-66
2023/06/26 04:07:35;;;;;;;10.57;4.53;;;23.60;99.90;;;;;;5010667;28;20548;-71
2023/06/26 04:10:04;;;;;;;12.55;4.95;;;23.70;99.90;;;;;;5012822;28;20197;-69
2023/06/26 04:12:32;;;;;;;8.48;4.57;;;23.90;99.90;;;;;;5015836;28;20216;-69
2023/06/26 04:14:59;;;;;;;10.13;4.72;;;24.20;99.90;;;;;;5020137;28;20279;-70
2023/06/26 04:17:26;;;;;;;6.93;4.43;;;24.40;99.90;;;;;;5013678;28;20209;-70
2023/06/26 04:19:53;;;;;;;6.43;4.97;;;24.70;99.90;;;;;;5010533;28;20213;-70
2023/06/26 04:22:20;;;;;;;5.03;3.67;;;24.80;99.90;;;;;;5006885;28;20552;-70
2023/06/26 04:24:47;;;;;;;10.77;4.53;;;25.20;99.90;;;;;;5015613;28;20587;-66
2023/06/26 04:27:14;;;;;;;7.55;4.70;;;25.00;98.50;;;;;;5014369;28;20906;-66
2023/06/26 04:29:41;;;;;;;5.95;3.95;;;24.60;97.80;;;;;;5011483;28;20619;-65
2023/06/26 04:32:08;;;;;;;5.22;3.97;;;24.30;97.60;;;;;;5023064;28;20197;-66
2023/06/26 04:34:36;;;;;;;5.80;3.80;;;24.30;96.30;;;;;;5017157;28;20691;-65
2023/06/26 04:37:04;;;;;;;8.60;3.80;;;24.60;96.70;;;;;;5016686;28;20207;-66
2023/06/26 04:39:31;;;;;;;7.22;4.13;;;25.20;95.60;;;;;;5020768;28;20275;-66
2023/06/26 04:41:58;;;;;;;7.28;4.05;;;25.50;95.10;;;;;;5015070;28;20200;-64
2023/06/26 04:44:25;;;;;;;6.25;3.13;;;25.50;93.70;;;;;;5024309;28;20196;-65
2023/06/26 04:46:52;;;;;;;7.07;3.58;;;25.80;94.60;;;;;;5006789;28;20193;-68
2023/06/26 04:49:19;;;;;;;6.22;3.70;;;25.80;93.00;;;;;;5015464;28;20197;-69
2023/06/26 04:51:48;;;;;;;8.00;3.83;;;26.00;93.20;;;;;;5013295;28;20208;-69
2023/06/26 04:54:15;;;;;;;5.15;3.65;;;26.40;92.10;;;;;;5011617;28;20212;-69
2023/06/26 04:56:43;;;;;;;8.32;4.10;;;26.60;92.40;;;;;;5018654;28;20185;-69
2023/06/26 04:59:13;;;;;;;4.60;3.25;;;26.40;91.10;;;;;;5021980;28;20954;-70
2023/06/26 05:01:40;;;;;;;6.05;3.67;;;26.30;90.90;;;;;;5012302;28;20676;-70
2023/06/26 05:04:08;;;;;;;5.13;3.50;;;26.40;90.40;;;;;;5007005;28;20247;-70
2023/06/26 05:06:35;;;;;;;4.85;3.60;;;26.60;89.40;;;;;;5015893;28;20525;-70
2023/06/26 05:09:02;;;;;;;5.07;3.72;;;27.40;90.60;;;;;;5019224;28;20200;-69
2023/06/26 05:11:29;;;;;;;4.82;3.70;;;27.50;90.40;;;;;;5013383;28;20208;-69
2023/06/26 05:13:56;;;;;;;7.80;4.20;;;28.40;90.10;;;;;;5015531;28;21166;-67
2023/06/26 05:16:23;;;;;;;5.10;3.67;;;28.60;86.30;;;;;;5016141;28;20232;-67
2023/06/26 05:18:50;;;;;;;6.32;3.92;;;29.00;85.50;;;;;;5011817;28;20216;-67
2023/06/26 05:21:17;;;;;;;4.32;3.47;;;28.70;82.30;;;;;;5014024;28;20236;-69
2023/06/26 05:23:46;;;;;;;6.65;4.30;;;28.30;84.10;;;;;;5011804;28;20193;-67
2023/06/26 05:26:13;;;;;;;6.30;3.50;;;28.00;82.20;;;;;;5012174;28;20197;-64
2023/06/26 05:28:40;;;;;;;5.82;3.72;;;28.00;85.40;;;;;;5012073;28;20533;-66
2023/06/26 05:31:08;;;;;;;6.55;4.20;;;28.90;85.20;;;;;;5008331;28;20263;-65
2023/06/26 05:33:36;;;;;;;5.55;3.92;;;28.90;84.30;;;;;;5016957;28;20193;-67
2023/06/26 05:36:05;;;;;;;7.20;3.88;;;28.90;98.70;;;;;;5013167;28;20200;-67
2023/06/26 05:38:33;;;;;;;6.53;4.05;;;28.80;81.90;;;;;;5018526;28;20479;-68
2023/06/26 05:41:00;;;;;;;5.50;4.10;;;29.10;80.90;;;;;;5005225;28;20255;-69
2023/06/26 05:43:27;;;;;;;5.03;3.90;;;29.60;80.00;;;;;;5018985;28;20263;-67
2023/06/26 05:45:59;;;;;;;6.25;3.85;;;29.90;80.00;;;;;;5015065;28;20319;-68
2023/06/26 05:48:26;;;;;;;3.92;3.53;;;29.60;78.40;;;;;;5004094;28;20772;-67
2023/06/26 05:50:54;;;;;;;5.35;3.88;;;29.70;80.60;;;;;;5019318;28;20245;-68
2023/06/26 05:53:22;;;;;;;7.45;6.10;;;30.20;78.10;;;;;;5012285;28;20193;-66
2023/06/26 05:55:49;;;;;;;11.00;7.00;;;30.70;78.50;;;;;;5015274;28;20593;-67
2023/06/26 05:58:17;;;;;;;10.57;7.93;;;30.40;77.30;;;;;;5007154;28;20189;-67
2023/06/26 06:00:44;;;;;;;12.68;9.73;;;30.00;78.50;;;;;;5017899;28;20213;-67
2023/06/26 06:03:11;;;;;;;6.03;4.95;;;30.60;76.70;;;;;;5008976;28;20220;-67
2023/06/26 06:05:38;;;;;;;14.30;10.70;;;30.40;77.20;;;;;;5006020;28;20196;-67
2023/06/26 06:08:05;;;;;;;11.70;8.35;;;31.20;75.30;;;;;;5013415;28;20196;-70
2023/06/26 06:10:32;;;;;;;20.58;13.07;;;31.20;72.30;;;;;;5010960;28;20262;-71
2023/06/26 06:13:00;;;;;;;15.88;11.55;;;31.10;75.60;;;;;;5017238;28;20208;-70
2023/06/26 06:15:27;;;;;;;10.23;6.63;;;30.60;75.00;;;;;;4991382;28;20200;-70
2023/06/26 06:17:56;;;;;;;9.25;6.43;;;30.60;73.40;;;;;;5011077;28;20254;-71
2023/06/26 06:20:25;;;;;;;10.38;6.07;;;31.40;74.70;;;;;;5010006;28;20209;-71
2023/06/26 06:22:52;;;;;;;8.02;4.53;;;31.80;72.50;;;;;;5001181;28;20223;-73
2023/06/26 06:25:19;;;;;;;6.35;4.68;;;31.90;72.70;;;;;;5009400;28;20204;-69
2023/06/26 06:27:46;;;;;;;9.07;6.32;;;31.60;69.50;;;;;;5019880;28;20219;-68
2023/06/26 06:30:13;;;;;;;10.40;7.03;;;29.70;68.40;;;;;;5019944;28;20626;-68
2023/06/26 06:32:40;;;;;;;9.90;5.40;;;29.10;72.70;;;;;;5017170;28;20216;-67
2023/06/26 06:35:10;;;;;;;5.50;4.57;;;30.00;73.60;;;;;;5013490;28;20197;-67
2023/06/26 06:37:39;;;;;;;7.88;5.45;;;30.30;74.60;;;;;;5011191;28;20199;-66
2023/06/26 06:40:09;;;;;;;9.32;5.72;;;31.40;73.50;;;;;;5012173;28;20735;-68
2023/06/26 06:42:36;;;;;;;9.45;5.28;;;31.60;72.20;;;;;;5021383;28;20683;-68
2023/06/26 06:45:04;;;;;;;7.13;4.85;;;32.10;69.70;;;;;;5013709;28;20660;-66
2023/06/26 06:47:32;;;;;;;7.80;4.88;;;32.20;71.00;;;;;;5013893;28;20664;-65
2023/06/26 06:50:07;;;;;;;5.50;3.42;;;33.60;68.70;;;;;;5005614;28;20203;-65
2023/06/26 06:52:40;;;;;;;8.25;4.35;;;33.80;65.70;;;;;;5008181;28;20272;-66
2023/06/26 06:55:10;;;;;;;6.03;3.88;;;32.60;61.30;;;;;;5013565;28;20235;-66
2023/06/26 06:57:39;;;;;;;5.22;4.25;;;31.20;62.80;;;;;;5014001;28;20180;-66
2023/06/26 07:00:12;;;;;;;9.55;4.00;;;30.50;63.60;;;;;;5004631;28;20278;-66
2023/06/26 07:02:40;;;;;;;5.78;4.10;;;29.30;63.70;;;;;;5000445;28;20201;-66
2023/06/26 07:05:08;;;;;;;9.10;4.70;;;28.40;67.80;;;;;;5014040;28;20232;-62
2023/06/26 07:07:36;;;;;;;8.52;5.35;;;28.00;68.00;;;;;;5007117;28;20732;-65
2023/06/26 07:10:05;;;;;;;9.95;4.00;;;27.20;70.50;;;;;;5005646;28;20302;-66
2023/06/26 07:12:33;;;;;;;9.05;4.55;;;26.50;71.60;;;;;;5005087;28;20196;-64
2023/06/26 07:15:02;;;;;;;7.07;3.85;;;28.50;75.30;;;;;;5008514;28;20200;-65
2023/06/26 07:17:30;;;;;;;6.03;3.58;;;30.00;73.20;;;;;;4990705;28;20205;-64
2023/06/26 07:19:57;;;;;;;7.43;3.63;;;29.90;70.20;;;;;;4990570;28;20217;-65
2023/06/26 07:22:24;;;;;;;8.18;4.43;;;28.40;69.40;;;;;;5001266;28;20668;-64
2023/06/26 07:24:51;;;;;;;6.22;3.75;;;29.10;70.70;;;;;;5000622;28;20227;-63
2023/06/26 07:27:18;;;;;;;10.00;4.38;;;29.60;71.60;;;;;;4996705;28;20196;-64
2023/06/26 07:29:46;;;;;;;9.77;4.22;;;28.90;68.30;;;;;;5000546;28;20196;-64
2023/06/26 07:32:13;;;;;;;10.70;6.57;;;28.90;71.30;;;;;;5017471;28;20202;-65
2023/06/26 07:34:41;;;;;;;10.98;7.45;;;29.60;71.00;;;;;;5005419;28;20189;-65
2023/06/26 07:37:08;;;;;;;15.32;6.03;;;29.30;69.70;;;;;;5003984;28;20276;-64
2023/06/26 07:39:35;;;;;;;7.55;4.68;;;28.90;69.40;;;;;;4998223;28;20220;-63
2023/06/26 07:42:02;;;;;;;10.70;4.40;;;28.70;69.50;;;;;;4998750;28;20212;-63
2023/06/26 07:44:29;;;;;;;6.47;5.15;;;29.40;73.70;;;;;;5003517;28;20204;-64
2023/06/26 07:46:56;;;;;;;9.48;5.03;;;30.60;69.70;;;;;;5001793;28;20604;-64
2023/06/26 07:49:23;;;;;;;8.13;3.83;;;30.90;66.70;;;;;;5003033;28;20247;-64
2023/06/26 07:51:50;;;;;;;9.20;5.00;;;30.40;65.70;;;;;;4998347;28;20802;-66
2023/06/26 07:54:17;;;;;;;6.97;4.50;;;31.40;67.40;;;;;;4998863;28;20220;-66
2023/06/26 07:56:58;;;;;;;7.10;3.90;;;31.80;64.90;;;;;;4997560;28;20661;-66
2023/06/26 07:59:27;;;;;;;5.40;3.55;;;31.90;67.60;;;;;;5004876;28;20581;-63
2023/06/26 08:01:55;;;;;;;5.13;3.55;;;32.40;67.70;;;;;;5001662;28;20205;-65
2023/06/26 08:04:24;;;;;;;6.80;4.00;;;33.10;63.40;;;;;;5003167;28;20245;-65
2023/06/26 08:06:56;;;;;;;5.47;2.90;;;33.50;63.10;;;;;;5004307;28;20201;-66
2023/06/26 08:09:26;;;;;;;5.72;3.33;;;35.60;62.60;;;;;;5006980;28;20204;-65
2023/06/26 08:11:54;;;;;;;8.60;3.63;;;36.10;58.20;;;;;;5005099;28;20201;-65
2023/06/26 08:14:21;;;;;;;6.75;3.63;;;37.20;56.40;;;;;;5002192;28;20535;-65
2023/06/26 08:16:49;;;;;;;5.97;3.40;;;36.90;55.60;;;;;;4999871;28;20232;-66
2023/06/26 08:19:16;;;;;;;5.43;3.45;;;36.10;52.70;;;;;;5008166;28;21826;-65
2023/06/26 08:21:45;;;;;;;6.65;3.53;;;34.50;53.20;;;;;;5006764;28;20191;-65
2023/06/26 08:24:18;;;;;;;8.07;4.15;;;33.70;53.20;;;;;;5003960;28;20197;-65
2023/06/26 08:26:46;;;;;;;10.13;6.32;;;34.30;55.90;;;;;;5003557;28;20248;-65
2023/06/26 08:29:14;;;;;;;10.15;5.88;;;35.10;54.70;;;;;;5004580;28;20189;-65
2023/06/26 08:31:43;;;;;;;9.02;5.35;;;35.60;54.70;;;;;;5004250;28;20185;-65
2023/06/26 08:34:10;;;;;;;7.32;4.60;;;37.40;54.60;;;;;;5006654;28;20537;-65
2023/06/26 08:36:38;;;;;;;7.35;4.18;;;38.50;51.30;;;;;;5005854;28;20196;-65
2023/06/26 08:39:05;;;;;;;9.18;6.00;;;37.80;48.80;;;;;;5006134;28;20200;-64
2023/06/26 08:41:32;;;;;;;10.85;6.53;;;38.40;47.40;;;;;;5007416;28;20565;-66
2023/06/26 08:44:00;;;;;;;8.00;5.80;;;36.40;44.50;;;;;;4999976;28;20200;-66
2023/06/26 08:46:28;;;;;;;8.30;4.57;;;35.30;46.30;;;;;;5003392;28;20259;-66
2023/06/26 08:49:00;;;;;;;9.50;4.60;;;32.90;46.80;;;;;;5002002;28;20204;-68
2023/06/26 08:51:29;;;;;;;6.57;4.22;;;31.70;49.70;;;;;;5003479;28;20280;-65
2023/06/26 08:53:59;;;;;;;5.80;3.78;;;32.30;53.10;;;;;;5004485;28;20196;-64
2023/06/26 08:56:36;;;;;;;7.05;3.92;;;32.70;51.30;;;;;;5006666;28;20608;-65
2023/06/26 08:59:04;;;;;;;7.07;3.97;;;31.50;52.70;;;;;;4988585;28;20212;-65
2023/06/26 09:01:32;;;;;;;7.47;3.55;;;31.90;52.90;;;;;;5004823;28;20291;-65
2023/06/26 09:03:59;;;;;;;9.77;3.85;;;33.90;53.20;;;;;;5004530;28;20332;-65
2023/06/26 09:06:26;;;;;;;6.25;3.67;;;34.10;49.40;;;;;;5004295;28;20197;-65
2023/06/26 09:08:54;;;;;;;14.68;8.68;;;34.50;51.10;;;;;;5020307;28;20205;-65
2023/06/26 09:11:21;;;;;;;15.32;7.78;;;36.30;49.70;;;;;;5005750;28;20250;-65
2023/06/26 09:13:49;;;;;;;8.57;4.63;;;37.20;44.40;;;;;;5002240;28;20267;-65
2023/06/26 09:16:16;;;;;;;8.82;4.88;;;35.40;43.60;;;;;;5004905;28;20668;-66
2023/06/26 09:18:47;;;;;;;9.95;4.47;;;33.90;46.90;;;;;;5005978;28;20950;-65
2023/06/26 09:21:14;;;;;;;6.85;5.25;;;31.00;47.00;;;;;;5006478;28;20240;-64
2023/06/26 09:23:42;;;;;;;10.68;5.13;;;30.70;50.60;;;;;;4988434;28;20212;-64
2023/06/26 09:26:09;;;;;;;5.78;4.55;;;30.80;52.00;;;;;;5004269;28;20963;-65
2023/06/26 09:28:36;;;;;;;10.35;4.60;;;30.50;52.30;;;;;;5005135;28;20205;-65
2023/06/26 09:31:04;;;;;;;7.85;3.85;;;30.10;53.60;;;;;;5003602;28;20197;-66
2023/06/26 09:33:38;;;;;;;6.15;3.60;;;29.90;54.40;;;;;;5001755;28;20200;-66
2023/06/26 09:36:07;;;;;;;4.68;3.60;;;29.80;54.60;;;;;;5005792;28;20197;-65
2023/06/26 09:38:35;;;;;;;7.40;3.67;;;31.00;55.10;;;;;;5000082;28;20205;-66
2023/06/26 09:41:05;;;;;;;7.20;3.83;;;33.80;54.00;;;;;;5004100;28;20301;-66
2023/06/26 09:43:32;;;;;;;7.55;3.17;;;34.50;48.50;;;;;;5003071;28;20212;-66
2023/06/26 09:46:00;;;;;;;7.15;3.53;;;34.00;48.20;;;;;;5004217;28;20255;-66
2023/06/26 09:48:28;;;;;;;6.38;3.28;;;34.00;49.40;;;;;;5005187;28;20213;-67
2023/06/26 09:50:56;;;;;;;7.53;3.22;;;34.50;48.60;;;;;;5003065;28;20224;-66
2023/06/26 09:53:41;;;;;;;8.18;3.60;;;35.50;46.50;;;;;;5003240;28;20249;-67
2023/06/26 09:56:18;;;;;;;5.85;3.25;;;34.50;43.80;;;;;;5003073;28;20201;-66
2023/06/26 09:58:45;;;;;;;7.45;3.55;;;31.80;46.20;;;;;;5002930;28;20192;-65
2023/06/26 10:01:13;;;;;;;4.45;3.45;;;31.30;47.10;;;;;;5005212;28;20223;-65
2023/06/26 10:03:40;;;;;;;18.70;11.10;;;32.10;48.70;;;;;;5003517;28;20720;-64
2023/06/26 10:06:09;;;;;;;11.95;5.72;;;32.70;46.20;;;;;;5001954;28;20208;-65
2023/06/26 10:08:39;;;;;;;10.65;6.07;;;33.00;46.60;;;;;;5000904;28;20681;-67
2023/06/26 10:11:12;;;;;;;5.82;3.85;;;32.80;47.80;;;;;;5003920;28;20677;-66
2023/06/26 10:13:46;;;;;;;7.10;3.90;;;33.60;50.80;;;;;;5000792;28;20404;-66
2023/06/26 10:16:23;;;;;;;8.13;4.38;;;35.00;44.50;;;;;;5004162;28;20195;-66
2023/06/26 10:18:54;;;;;;;3.83;2.88;;;35.10;44.60;;;;;;5004716;28;20197;-65
2023/06/26 10:21:23;;;;;;;6.05;3.03;;;34.00;43.40;;;;;;5002540;28;20231;-65
2023/06/26 10:23:52;;;;;;;5.30;2.85;;;32.50;46.00;;;;;;5002588;28;20197;-67
2023/06/26 10:26:22;;;;;;;5.00;2.83;;;31.20;44.40;;;;;;5005131;28;20243;-65
2023/06/26 10:28:52;;;;;;;4.53;2.83;;;30.90;47.50;;;;;;5003287;28;20277;-65
2023/06/26 10:31:23;;;;;;;5.88;2.67;;;31.90;45.80;;;;;;5003507;28;20722;-66
2023/06/26 10:33:50;;;;;;;5.22;2.30;;;32.20;46.40;;;;;;5003484;28;20379;-65
2023/06/26 10:36:19;;;;;;;7.95;2.63;;;31.40;44.10;;;;;;5004863;28;20271;-65
2023/06/26 10:38:51;;;;;;;5.07;2.70;;;30.60;46.90;;;;;;5004886;28;20242;-66
2023/06/26 10:41:25;;;;;;;4.03;2.28;;;31.60;45.70;;;;;;5003210;28;20258;-65
2023/06/26 10:44:01;;;;;;;3.80;2.28;;;32.50;43.70;;;;;;5003922;28;20184;-65
2023/06/26 10:46:34;;;;;;;4.60;2.45;;;32.10;43.00;;;;;;5003562;28;20264;-64
2023/06/26 10:49:03;;;;;;;3.25;1.83;;;31.70;42.50;;;;;;5002264;28;20201;-64
2023/06/26 10:51:31;;;;;;;4.47;2.67;;;31.60;42.70;;;;;;5004876;28;20189;-64
2023/06/26 10:53:58;;;;;;;5.00;2.75;;;30.80;43.00;;;;;;5002323;28;20204;-64
2023/06/26 10:56:45;;;;;;;7.25;2.30;;;30.10;44.80;;;;;;5003517;28;20197;-64
2023/06/26 10:59:20;;;;;;;4.80;2.13;;;31.30;42.00;;;;;;5005318;28;20226;-66
2023/06/26 11:01:55;;;;;;;4.05;2.03;;;32.80;40.90;;;;;;5004938;28;20215;-65
2023/06/26 11:04:38;;;;;;;6.13;2.28;;;33.80;39.50;;;;;;5001679;28;20313;-65
2023/06/26 11:07:19;;;;;;;4.18;3.22;;;34.00;36.70;;;;;;5001887;28;20192;-66
2023/06/26 11:10:01;;;;;;;5.28;3.17;;;34.20;35.60;;;;;;5002891;28;20227;-67
2023/06/26 11:12:37;;;;;;;3.88;2.15;;;34.40;35.20;;;;;;5000639;28;20200;-64
2023/06/26 11:15:07;;;;;;;3.47;1.77;;;34.20;34.40;;;;;;5001630;28;20214;-66
2023/06/26 11:17:36;;;;;;;4.80;2.10;;;33.50;33.90;;;;;;5004451;28;20188;-65
2023/06/26 11:20:07;;;;;;;3.78;1.85;;;33.20;33.50;;;;;;4999856;28;20684;-65
2023/06/26 11:22:39;;;;;;;3.33;2.45;;;33.10;32.90;;;;;;4999662;28;20246;-65
2023/06/26 11:25:07;;;;;;;4.63;2.30;;;33.60;32.60;;;;;;4995823;28;20203;-67
2023/06/26 11:27:44;;;;;;;3.13;1.95;;;34.00;30.90;;;;;;5002097;28;20243;-66
2023/06/26 11:30:24;;;;;;;3.20;2.00;;;34.00;30.00;;;;;;5003166;28;20651;-66
2023/06/26 11:32:51;;;;;;;3.30;1.80;;;34.00;28.90;;;;;;5002520;28;20293;-65
2023/06/26 11:35:29;;;;;;;3.13;1.77;;;33.50;28.90;;;;;;5005872;28;20450;-65
2023/06/26 11:37:59;;;;;;;1.80;1.58;;;33.60;29.00;;;;;;5006270;28;20195;-64
2023/06/26 11:40:35;;;;;;;2.35;1.67;;;34.00;28.10;;;;;;5007258;28;20297;-66
2023/06/26 11:43:03;;;;;;;4.20;1.50;;;34.50;28.00;;;;;;5007307;28;20216;-67
2023/06/26 11:45:32;;;;;;;3.88;1.90;;;35.10;27.10;;;;;;5006311;28;20557;-65
2023/06/26 11:48:00;;;;;;;3.80;1.90;;;35.60;26.90;;;;;;5005200;28;20684;-64
2023/06/26 11:50:27;;;;;;;1.83;1.60;;;35.60;25.80;;;;;;5007810;28;20204;-65
2023/06/26 11:52:58;;;;;;;3.67;1.83;;;34.80;25.60;;;;;;5004857;28;20205;-66
2023/06/26 11:55:26;;;;;;;2.92;1.63;;;34.50;26.70;;;;;;5005932;28;20199;-64
2023/06/26 11:57:56;;;;;;;3.65;1.80;;;34.10;25.80;;;;;;5006717;28;20197;-63
2023/06/26 12:00:24;;;;;;;3.00;2.10;;;33.10;26.10;;;;;;5003720;28;20896;-66
2023/06/26 12:02:52;;;;;;;4.05;1.90;;;32.50;28.20;;;;;;5001305;28;20200;-66
2023/06/26 12:05:20;;;;;;;5.93;2.30;;;32.10;27.70;;;;;;5004079;28;20204;-66
2023/06/26 12:07:49;;;;;;;3.67;2.20;;;31.00;28.70;;;;;;4998623;28;20197;-65
2023/06/26 12:10:17;;;;;;;3.40;2.08;;;30.80;29.80;;;;;;5006729;28;20284;-65
2023/06/26 12:12:45;;;;;;;3.20;2.17;;;30.00;30.50;;;;;;4990569;28;20196;-66
2023/06/26 12:15:15;;;;;;;2.55;1.80;;;29.70;32.70;;;;;;5003622;28;20194;-66
2023/06/26 12:17:45;;;;;;;3.80;2.08;;;30.50;33.00;;;;;;5000347;28;20244;-65
2023/06/26 12:20:21;;;;;;;3.83;2.25;;;31.20;31.20;;;;;;5005870;28;20324;-66
2023/06/26 12:22:48;;;;;;;5.25;2.45;;;31.60;30.70;;;;;;5006689;28;20431;-64
2023/06/26 12:25:21;;;;;;;4.40;2.38;;;31.30;30.40;;;;;;5006385;28;20226;-66
2023/06/26 12:27:49;;;;;;;4.63;1.95;;;30.90;32.50;;;;;;5002381;28;20200;-66
2023/06/26 12:30:16;;;;;;;3.88;2.10;;;31.10;31.70;;;;;;5008899;28;20284;-65
2023/06/26 12:32:46;;;;;;;4.40;2.22;;;30.70;31.30;;;;;;5002399;28;20193;-65
2023/06/26 12:35:15;;;;;;;4.60;1.92;;;30.20;32.30;;;;;;4989890;28;20229;-65
2023/06/26 12:37:44;;;;;;;4.22;2.35;;;30.10;32.80;;;;;;5008244;28;20742;-65
2023/06/26 12:40:19;;;;;;;2.30;1.77;;;29.80;32.10;;;;;;5007486;28;20221;-64
2023/06/26 12:42:46;;;;;;;1.60;1.50;;;29.80;32.80;;;;;;5007306;28;20573;-64
2023/06/26 12:45:14;;;;;;;3.03;2.17;;;29.70;33.80;;;;;;5006226;28;20758;-66
2023/06/26 12:48:13;;;;;;;3.90;2.05;;;29.70;33.30;;;;;;5008249;28;20656;-64
2023/06/26 12:50:44;;;;;;;4.30;2.28;;;29.90;33.90;;;;;;5007426;28;20235;-65
2023/06/26 12:53:11;;;;;;;4.03;2.00;;;30.00;33.80;;;;;;5005430;28;20754;-64
2023/06/26 12:55:40;;;;;;;5.10;2.08;;;29.80;32.80;;;;;;5007550;28;20380;-64